Time;durP1;ratioP1;P1;durP2;ratioP2;P2;SDS_P1;SDS_P2;PMS_P1;PMS_P2;Temp;Humidity;BMP_temperature;BMP_pressure;BME280_temperature;BME280_humidity;BME280_pressure;Samples;Min_cycle;Max_cycle;Signal;HPM_P1;HPM_P2
2022/07/07 00:01:26;;;;;;;3.83;0.80;;;20.70;64.00;;;;;;5016236;28;20044;-76
2022/07/07 00:03:54;;;;;;;2.13;1.00;;;20.70;63.80;;;;;;5031392;28;20044;-75
2022/07/07 00:06:21;;;;;;;2.22;0.82;;;20.60;63.60;;;;;;5018268;28;20073;-76
2022/07/07 00:08:48;;;;;;;1.48;0.60;;;20.50;63.80;;;;;;5012762;28;20128;-75
2022/07/07 00:11:16;;;;;;;3.95;1.00;;;20.40;63.50;;;;;;5015565;28;20041;-76
2022/07/07 00:13:43;;;;;;;1.40;1.00;;;20.40;63.80;;;;;;5018831;28;20044;-76
2022/07/07 00:16:10;;;;;;;4.80;1.15;;;20.40;64.20;;;;;;5018719;28;20492;-76
2022/07/07 00:18:37;;;;;;;5.60;1.48;;;20.40;63.80;;;;;;5000323;28;20812;-75
2022/07/07 00:21:04;;;;;;;4.63;1.27;;;20.40;63.90;;;;;;5025526;28;20047;-76
2022/07/07 00:23:32;;;;;;;3.65;0.88;;;20.40;64.50;;;;;;5016212;28;20064;-76
2022/07/07 00:25:59;;;;;;;5.25;1.65;;;20.40;64.50;;;;;;5019727;28;20045;-76
2022/07/07 00:28:26;;;;;;;2.08;1.08;;;20.30;64.10;;;;;;5018493;28;20073;-75
2022/07/07 00:30:53;;;;;;;1.90;0.70;;;20.30;64.30;;;;;;5017206;28;20053;-76
2022/07/07 00:33:20;;;;;;;2.08;1.00;;;20.30;64.30;;;;;;5033882;28;20053;-76
2022/07/07 00:35:47;;;;;;;2.45;0.98;;;20.20;64.40;;;;;;5016460;28;20045;-75
2022/07/07 00:38:15;;;;;;;2.15;0.90;;;20.20;64.70;;;;;;5015390;28;20042;-76
2022/07/07 00:40:42;;;;;;;1.63;0.85;;;20.10;64.80;;;;;;5018438;28;20094;-76
2022/07/07 00:43:09;;;;;;;3.20;0.90;;;20.00;65.10;;;;;;5016106;28;20065;-76
2022/07/07 00:45:36;;;;;;;2.08;0.95;;;20.00;65.10;;;;;;5010924;28;20080;-76
2022/07/07 00:48:06;;;;;;;3.15;0.60;;;20.00;65.70;;;;;;5019778;28;20074;-75
2022/07/07 00:50:33;;;;;;;1.92;0.80;;;20.10;65.80;;;;;;5017912;28;20037;-76
2022/07/07 00:53:00;;;;;;;1.55;0.68;;;20.10;67.10;;;;;;5017073;28;21107;-76
2022/07/07 00:55:27;;;;;;;2.00;0.70;;;20.00;66.70;;;;;;5015871;28;20037;-75
2022/07/07 00:57:54;;;;;;;4.53;0.90;;;20.00;66.70;;;;;;5027795;28;20041;-75
2022/07/07 01:00:21;;;;;;;1.70;0.90;;;20.00;66.90;;;;;;5009533;28;20064;-75
2022/07/07 01:02:52;;;;;;;1.77;0.75;;;20.00;67.30;;;;;;5001204;28;20045;-76
2022/07/07 01:05:19;;;;;;;1.13;0.85;;;20.00;67.30;;;;;;5018410;28;20052;-75
2022/07/07 01:07:47;;;;;;;1.02;0.68;;;20.00;67.40;;;;;;5010328;28;20108;-75
2022/07/07 01:10:15;;;;;;;1.88;1.08;;;19.90;68.20;;;;;;5015274;28;20053;-76
2022/07/07 01:12:42;;;;;;;1.75;0.68;;;19.90;69.30;;;;;;5016664;28;20053;-75
2022/07/07 01:15:11;;;;;;;1.27;0.90;;;19.80;69.30;;;;;;5019400;28;20034;-76
2022/07/07 01:17:39;;;;;;;1.95;0.80;;;19.80;70.00;;;;;;5015829;28;20042;-75
2022/07/07 01:20:08;;;;;;;1.33;0.60;;;19.70;69.30;;;;;;5012134;28;20413;-76
2022/07/07 01:22:37;;;;;;;0.85;0.60;;;19.60;70.50;;;;;;5017326;28;20037;-75
2022/07/07 01:25:06;;;;;;;1.33;0.70;;;19.60;69.40;;;;;;5016113;28;20050;-76
2022/07/07 01:27:33;;;;;;;1.13;0.70;;;19.70;69.70;;;;;;5028426;28;20037;-76
2022/07/07 01:30:01;;;;;;;1.85;0.88;;;19.60;69.20;;;;;;5015800;28;20465;-76
2022/07/07 01:32:28;;;;;;;1.38;0.88;;;19.60;69.10;;;;;;5016311;28;20414;-76
2022/07/07 01:34:55;;;;;;;2.60;1.00;;;19.60;69.60;;;;;;5000007;28;20504;-75
2022/07/07 01:37:24;;;;;;;1.48;1.10;;;19.70;69.90;;;;;;5017602;28;20507;-76
2022/07/07 01:39:53;;;;;;;3.90;1.35;;;19.50;69.60;;;;;;5014810;28;20386;-76
2022/07/07 01:42:21;;;;;;;2.15;0.85;;;19.50;69.70;;;;;;5014800;28;20053;-76
2022/07/07 01:44:51;;;;;;;5.00;0.90;;;19.40;70.00;;;;;;5016301;28;20065;-76
2022/07/07 01:47:21;;;;;;;1.30;0.93;;;19.50;71.00;;;;;;5017634;28;20513;-76
2022/07/07 01:49:48;;;;;;;1.40;0.80;;;19.60;70.90;;;;;;5013618;28;20095;-75
2022/07/07 01:52:16;;;;;;;1.77;0.90;;;19.60;72.10;;;;;;5015096;28;20044;-75
2022/07/07 01:54:44;;;;;;;2.00;0.90;;;19.50;72.20;;;;;;5016165;28;20403;-75
2022/07/07 01:57:11;;;;;;;2.42;1.10;;;19.50;72.10;;;;;;4994148;28;20056;-76
2022/07/07 01:59:38;;;;;;;2.17;0.98;;;19.50;72.00;;;;;;5015833;28;20038;-76
2022/07/07 02:02:06;;;;;;;3.30;0.88;;;19.40;73.20;;;;;;5016016;28;20053;-76
2022/07/07 02:04:33;;;;;;;2.10;1.10;;;19.40;73.10;;;;;;5016886;28;20400;-76
2022/07/07 02:07:01;;;;;;;2.38;1.00;;;19.40;73.50;;;;;;5029561;28;20057;-76
2022/07/07 02:09:28;;;;;;;1.75;1.15;;;19.30;73.60;;;;;;5016894;28;20053;-76
2022/07/07 02:11:55;;;;;;;2.63;1.15;;;19.20;74.90;;;;;;5016211;28;20408;-76
2022/07/07 02:14:22;;;;;;;1.63;1.00;;;19.20;74.40;;;;;;4997780;28;20144;-76
2022/07/07 02:16:50;;;;;;;1.83;1.15;;;19.20;74.40;;;;;;5009078;28;20099;-76
2022/07/07 02:19:17;;;;;;;1.38;1.08;;;19.20;75.20;;;;;;5008925;28;20116;-76
2022/07/07 02:21:44;;;;;;;1.40;1.00;;;19.10;76.00;;;;;;5013331;28;20038;-76
2022/07/07 02:24:11;;;;;;;1.90;1.00;;;19.10;75.60;;;;;;5016559;28;20045;-75
2022/07/07 02:26:38;;;;;;;2.30;0.90;;;19.00;75.40;;;;;;4995435;28;21581;-76
2022/07/07 02:29:05;;;;;;;1.48;1.10;;;19.00;76.40;;;;;;5012228;28;20045;-75
2022/07/07 02:31:33;;;;;;;1.90;1.20;;;19.00;76.30;;;;;;5008698;28;20499;-76
2022/07/07 02:34:00;;;;;;;3.47;1.52;;;19.00;76.80;;;;;;5030616;28;20613;-76
2022/07/07 02:36:28;;;;;;;2.88;1.23;;;18.90;76.90;;;;;;5012836;28;20045;-76
2022/07/07 02:38:55;;;;;;;4.00;1.90;;;18.90;77.60;;;;;;5014568;28;20037;-76
2022/07/07 02:41:22;;;;;;;1.42;1.00;;;18.90;77.80;;;;;;5008686;28;20467;-76
2022/07/07 02:43:50;;;;;;;2.70;1.30;;;18.80;78.00;;;;;;5009894;28;20493;-75
2022/07/07 02:46:17;;;;;;;2.65;1.70;;;18.80;78.10;;;;;;5015990;28;20056;-75
2022/07/07 02:48:44;;;;;;;2.17;1.35;;;18.80;78.20;;;;;;5029021;28;20041;-75
2022/07/07 02:51:11;;;;;;;2.22;1.20;;;18.80;78.70;;;;;;5007413;28;21143;-75
2022/07/07 02:53:39;;;;;;;3.45;1.35;;;18.80;79.00;;;;;;5014349;28;20064;-75
2022/07/07 02:56:07;;;;;;;3.17;1.50;;;18.80;79.40;;;;;;5028844;28;20038;-76
2022/07/07 02:58:34;;;;;;;6.05;1.67;;;18.80;79.80;;;;;;5013250;28;20060;-75
2022/07/07 03:01:01;;;;;;;2.85;1.50;;;18.80;79.30;;;;;;5012586;28;20038;-75
2022/07/07 03:03:28;;;;;;;4.53;1.10;;;18.70;79.80;;;;;;5014230;28;20072;-75
2022/07/07 03:05:56;;;;;;;1.55;1.13;;;18.70;79.40;;;;;;5011672;28;20045;-75
2022/07/07 03:08:23;;;;;;;1.70;1.42;;;18.70;79.70;;;;;;4997345;28;20378;-75
2022/07/07 03:10:58;;;;;;;2.67;1.45;;;18.70;80.10;;;;;;5015580;28;20041;-75
2022/07/07 03:13:25;;;;;;;2.97;1.35;;;18.70;80.30;;;;;;5027676;28;20059;-75
2022/07/07 03:15:53;;;;;;;2.63;1.67;;;18.70;79.70;;;;;;5011860;28;20042;-75
2022/07/07 03:18:20;;;;;;;2.90;1.63;;;18.70;79.70;;;;;;5016134;28;20382;-75
2022/07/07 03:20:47;;;;;;;2.53;1.80;;;18.70;79.40;;;;;;5012213;28;20068;-75
2022/07/07 03:23:14;;;;;;;2.72;1.58;;;18.70;79.60;;;;;;5000250;28;20128;-77
2022/07/07 03:25:41;;;;;;;3.42;1.60;;;18.60;79.90;;;;;;5015295;28;20424;-76
2022/07/07 03:28:08;;;;;;;3.05;1.90;;;18.60;80.90;;;;;;5007720;28;20038;-76
2022/07/07 03:30:35;;;;;;;4.63;2.10;;;18.60;81.20;;;;;;5013575;28;20037;-75
2022/07/07 03:33:02;;;;;;;2.88;1.50;;;18.60;81.40;;;;;;4996883;28;20054;-76
2022/07/07 03:35:29;;;;;;;3.58;1.75;;;18.60;80.90;;;;;;5012167;28;20480;-76
2022/07/07 03:37:57;;;;;;;4.80;1.90;;;18.60;81.40;;;;;;5014011;28;20041;-76
2022/07/07 03:40:24;;;;;;;6.60;2.13;;;18.60;81.70;;;;;;5011819;28;20052;-76
2022/07/07 03:42:51;;;;;;;5.20;2.42;;;18.60;81.70;;;;;;5025498;28;20706;-76
2022/07/07 03:45:18;;;;;;;4.70;2.22;;;18.70;82.40;;;;;;5014241;28;20087;-76
2022/07/07 03:47:45;;;;;;;4.80;2.20;;;18.70;82.10;;;;;;5029242;28;20042;-76
2022/07/07 03:50:12;;;;;;;3.72;2.40;;;18.70;82.80;;;;;;5008913;28;20038;-76
2022/07/07 03:52:39;;;;;;;2.97;1.80;;;18.70;81.70;;;;;;5010917;28;20038;-75
2022/07/07 03:55:07;;;;;;;3.22;1.70;;;18.70;80.80;;;;;;5009727;28;20046;-75
2022/07/07 03:57:34;;;;;;;4.20;2.40;;;18.70;80.80;;;;;;5006564;28;20504;-75
2022/07/07 04:00:02;;;;;;;3.03;1.90;;;18.80;80.70;;;;;;5029429;28;20516;-76
2022/07/07 04:02:35;;;;;;;2.97;1.77;;;18.70;80.40;;;;;;5013870;28;20049;-76
2022/07/07 04:05:03;;;;;;;8.18;2.47;;;18.80;80.60;;;;;;5020121;28;20042;-76
2022/07/07 04:07:30;;;;;;;4.13;1.58;;;18.80;80.80;;;;;;5005148;28;20513;-75
2022/07/07 04:09:57;;;;;;;5.25;1.58;;;18.80;80.20;;;;;;5012987;28;20040;-76
2022/07/07 04:12:24;;;;;;;2.80;1.42;;;18.90;79.90;;;;;;5012978;28;20811;-76
2022/07/07 04:14:51;;;;;;;2.85;1.92;;;18.90;79.70;;;;;;5019632;28;20049;-76
2022/07/07 04:17:18;;;;;;;3.22;2.05;;;19.10;81.00;;;;;;5017777;28;20316;-76
2022/07/07 04:19:46;;;;;;;2.30;1.73;;;19.20;81.70;;;;;;5019101;28;20243;-75
2022/07/07 04:22:13;;;;;;;4.22;2.08;;;19.20;80.80;;;;;;5012519;28;20511;-76
2022/07/07 04:24:40;;;;;;;2.15;1.75;;;19.30;80.40;;;;;;5013110;28;20049;-76
2022/07/07 04:27:08;;;;;;;2.60;2.10;;;19.40;81.00;;;;;;5018836;28;20100;-75
2022/07/07 04:29:36;;;;;;;3.75;2.15;;;19.50;78.80;;;;;;5031766;28;20050;-75
2022/07/07 04:32:04;;;;;;;3.83;2.33;;;19.60;80.00;;;;;;5019389;28;20047;-76
2022/07/07 04:34:31;;;;;;;5.72;2.20;;;19.60;80.30;;;;;;5020086;28;20452;-76
2022/07/07 04:36:58;;;;;;;3.45;2.53;;;19.70;79.10;;;;;;5019718;28;20128;-76
2022/07/07 04:39:25;;;;;;;4.68;2.38;;;19.70;77.80;;;;;;5031277;28;21207;-76
2022/07/07 04:41:52;;;;;;;2.05;1.85;;;19.80;77.80;;;;;;5010964;28;20095;-76
2022/07/07 04:44:19;;;;;;;3.05;2.10;;;19.90;76.90;;;;;;5019907;28;20053;-76
2022/07/07 04:46:46;;;;;;;5.00;2.63;;;19.90;76.80;;;;;;5018175;28;20049;-76
2022/07/07 04:49:14;;;;;;;6.43;2.88;;;20.00;76.80;;;;;;5019094;28;20037;-76
2022/07/07 04:51:46;;;;;;;;;;;20.10;76.90;;;;;;5001348;28;20088;-75
2022/07/07 04:54:13;;;;;;;2.92;1.67;;;20.20;76.00;;;;;;4982338;28;20408;-76
2022/07/07 04:56:41;;;;;;;2.90;1.83;;;20.30;75.50;;;;;;4979199;28;20041;-75
2022/07/07 04:59:08;;;;;;;1.77;1.67;;;20.40;74.90;;;;;;4965981;28;20052;-75
2022/07/07 05:01:35;;;;;;;2.38;1.80;;;20.20;74.20;;;;;;4977904;28;20796;-76
2022/07/07 05:04:02;;;;;;;3.33;1.35;;;20.40;75.00;;;;;;4967837;28;20144;-76
2022/07/07 05:06:29;;;;;;;2.75;1.40;;;20.50;73.40;;;;;;4978536;28;20508;-76
2022/07/07 05:08:57;;;;;;;2.28;1.30;;;20.80;73.40;;;;;;4994526;28;20045;-76
2022/07/07 05:11:24;;;;;;;3.22;1.40;;;20.90;73.40;;;;;;4978604;28;20050;-76
2022/07/07 05:13:51;;;;;;;3.25;1.67;;;21.00;71.40;;;;;;4949629;28;20562;-76
2022/07/07 05:16:18;;;;;;;4.57;1.45;;;21.10;71.50;;;;;;4976373;28;20038;-76
2022/07/07 05:18:45;;;;;;;2.35;1.23;;;21.30;71.50;;;;;;4979091;28;20045;-76
2022/07/07 05:21:12;;;;;;;2.35;1.17;;;21.40;70.10;;;;;;4964612;28;20042;-75
2022/07/07 05:23:39;;;;;;;3.25;1.30;;;21.50;69.80;;;;;;4965014;28;20593;-76
2022/07/07 05:26:06;;;;;;;5.22;1.65;;;21.60;69.90;;;;;;4967081;28;20054;-76
2022/07/07 05:28:36;;;;;;;1.85;1.35;;;21.80;70.60;;;;;;4995850;28;20054;-76
2022/07/07 05:31:03;;;;;;;2.17;1.20;;;21.90;67.90;;;;;;4966647;28;20053;-76
2022/07/07 05:33:30;;;;;;;2.03;1.20;;;22.00;67.30;;;;;;4976134;28;20050;-76
2022/07/07 05:35:57;;;;;;;2.88;1.15;;;22.20;67.80;;;;;;4978492;28;20069;-76
2022/07/07 05:38:29;;;;;;;2.72;1.35;;;22.30;66.30;;;;;;4983300;28;20049;-76
2022/07/07 05:40:56;;;;;;;1.58;1.40;;;22.40;66.10;;;;;;4968143;28;20717;-75
2022/07/07 05:43:23;;;;;;;2.25;1.02;;;22.40;65.80;;;;;;4983408;28;20201;-75
2022/07/07 05:45:51;;;;;;;4.05;1.25;;;22.50;65.10;;;;;;4976872;28;20084;-76
2022/07/07 05:48:18;;;;;;;1.98;1.10;;;22.60;65.30;;;;;;4977874;28;20052;-76
2022/07/07 05:50:47;;;;;;;1.95;1.15;;;22.70;64.50;;;;;;4994445;28;20087;-75
2022/07/07 05:53:14;;;;;;;3.67;1.20;;;22.90;64.90;;;;;;4981855;28;22160;-76
2022/07/07 05:55:41;;;;;;;1.77;0.90;;;23.00;65.00;;;;;;4984347;28;20057;-76
2022/07/07 05:58:08;;;;;;;2.60;1.23;;;23.10;64.10;;;;;;4980557;28;20056;-76
2022/07/07 06:00:35;;;;;;;3.08;1.27;;;23.30;63.40;;;;;;4979428;28;20094;-76
2022/07/07 06:03:02;;;;;;;2.17;1.00;;;23.40;64.60;;;;;;4978420;28;20050;-76
2022/07/07 06:05:30;;;;;;;1.65;1.15;;;23.50;63.30;;;;;;4960771;28;20057;-76
2022/07/07 06:07:57;;;;;;;2.83;1.17;;;23.40;62.50;;;;;;4952407;28;20045;-76
2022/07/07 06:10:24;;;;;;;2.67;1.10;;;23.50;62.80;;;;;;4973739;28;20057;-75
2022/07/07 06:12:51;;;;;;;1.48;1.23;;;23.60;62.60;;;;;;4953289;28;20041;-76
2022/07/07 06:15:20;;;;;;;3.85;0.93;;;23.80;63.50;;;;;;4960805;28;20161;-75
2022/07/07 06:17:48;;;;;;;1.73;1.00;;;23.90;63.60;;;;;;4980380;28;20725;-75
2022/07/07 06:20:33;;;;;;;4.20;1.52;;;24.00;62.20;;;;;;4978637;28;20118;-76
2022/07/07 06:23:00;;;;;;;1.75;1.08;;;24.10;61.60;;;;;;4977559;28;22183;-76
2022/07/07 06:25:27;;;;;;;2.15;1.02;;;24.10;62.50;;;;;;4948228;28;20158;-76
2022/07/07 06:27:55;;;;;;;1.73;1.08;;;24.10;60.40;;;;;;4968245;28;20045;-76
2022/07/07 06:30:22;;;;;;;1.55;1.00;;;24.20;61.00;;;;;;4975232;28;20891;-76
2022/07/07 06:32:49;;;;;;;2.60;0.93;;;24.30;60.90;;;;;;4977623;28;20068;-76
2022/07/07 06:35:16;;;;;;;1.80;0.82;;;24.40;59.40;;;;;;4978615;28;20053;-76
2022/07/07 06:37:43;;;;;;;3.20;1.10;;;24.50;59.90;;;;;;4976781;28;20049;-76
2022/07/07 06:40:11;;;;;;;2.13;1.17;;;24.40;59.60;;;;;;4977760;28;20054;-76
2022/07/07 06:42:38;;;;;;;3.58;1.38;;;24.60;61.00;;;;;;4990247;28;21162;-76
2022/07/07 06:45:11;;;;;;;3.40;1.40;;;24.70;59.30;;;;;;4974769;28;22065;-76
2022/07/07 06:47:38;;;;;;;2.70;1.10;;;24.80;59.00;;;;;;4979118;28;22442;-76
2022/07/07 06:50:05;;;;;;;2.55;1.25;;;24.80;59.10;;;;;;4958789;28;20057;-76
2022/07/07 06:52:33;;;;;;;1.55;1.15;;;24.80;59.50;;;;;;4969474;28;20756;-76
2022/07/07 06:55:00;;;;;;;2.35;1.10;;;24.90;59.60;;;;;;4972090;28;20122;-76
2022/07/07 06:57:27;;;;;;;2.45;1.48;;;25.00;60.10;;;;;;4966602;28;20042;-76
2022/07/07 06:59:54;;;;;;;2.17;1.20;;;25.10;59.20;;;;;;4968423;28;20057;-76
2022/07/07 07:02:21;;;;;;;4.57;1.35;;;25.00;59.40;;;;;;4979671;28;22402;-76
2022/07/07 07:04:50;;;;;;;3.38;1.20;;;25.30;60.70;;;;;;4997393;28;20044;-76
2022/07/07 07:07:18;;;;;;;2.15;1.00;;;25.30;59.50;;;;;;4997480;28;20057;-76
2022/07/07 07:10:50;;;;;;;1.45;1.15;;;25.40;59.00;;;;;;4981883;28;20068;-76
2022/07/07 07:13:36;;;;;;;2.03;0.95;;;25.30;58.00;;;;;;4981327;28;20025;-75
2022/07/07 07:16:03;;;;;;;1.73;1.35;;;25.40;59.30;;;;;;4995797;28;20915;-75
2022/07/07 07:18:30;;;;;;;2.25;1.23;;;25.10;58.70;;;;;;4968886;28;20721;-76
2022/07/07 07:20:57;;;;;;;5.00;1.50;;;24.80;60.20;;;;;;4982627;28;20614;-76
2022/07/07 07:23:24;;;;;;;3.05;1.27;;;25.00;60.90;;;;;;4984410;28;20049;-75
2022/07/07 07:25:52;;;;;;;2.00;0.80;;;25.20;60.70;;;;;;4982830;28;20114;-76
2022/07/07 07:28:19;;;;;;;2.95;1.35;;;25.10;60.60;;;;;;4982763;28;20361;-76
2022/07/07 07:30:46;;;;;;;2.22;1.00;;;25.20;59.90;;;;;;4969361;28;20421;-76
2022/07/07 07:33:13;;;;;;;1.58;1.15;;;25.20;58.20;;;;;;4980643;28;20107;-76
2022/07/07 07:35:40;;;;;;;1.27;1.10;;;25.30;59.10;;;;;;4954877;28;20846;-75
2022/07/07 07:38:08;;;;;;;1.75;1.10;;;25.20;57.80;;;;;;4969131;28;20061;-75
2022/07/07 07:40:35;;;;;;;2.75;0.70;;;25.20;60.20;;;;;;4982031;28;20513;-75
2022/07/07 07:43:02;;;;;;;1.17;1.08;;;25.30;57.90;;;;;;4969760;28;20135;-76
2022/07/07 07:45:29;;;;;;;2.75;1.00;;;25.30;59.30;;;;;;4993048;28;22403;-76
2022/07/07 07:47:57;;;;;;;2.55;1.08;;;25.60;60.00;;;;;;4965597;28;20218;-76
2022/07/07 07:50:24;;;;;;;1.17;0.93;;;25.60;59.20;;;;;;4989451;28;20053;-76
2022/07/07 07:52:51;;;;;;;1.77;0.80;;;25.60;56.90;;;;;;4973546;28;21205;-76
2022/07/07 07:55:20;;;;;;;4.68;1.05;;;25.80;58.00;;;;;;4973347;28;22348;-75
2022/07/07 07:57:47;;;;;;;1.52;0.80;;;26.00;58.70;;;;;;4977206;28;20132;-75
2022/07/07 08:00:16;;;;;;;1.75;0.80;;;26.00;59.70;;;;;;4984338;28;20073;-75
2022/07/07 08:02:44;;;;;;;2.20;0.77;;;26.10;60.50;;;;;;4986701;28;20208;-77
2022/07/07 08:05:14;;;;;;;2.05;0.80;;;26.00;60.20;;;;;;4986068;28;21794;-75
2022/07/07 08:07:42;;;;;;;1.55;0.80;;;26.10;58.70;;;;;;4975284;28;20364;-75
2022/07/07 08:10:11;;;;;;;1.48;0.90;;;26.00;59.00;;;;;;4978305;28;20144;-75
2022/07/07 08:12:39;;;;;;;1.30;0.90;;;26.20;59.10;;;;;;4983634;28;20115;-75
2022/07/07 08:15:06;;;;;;;2.13;0.80;;;26.10;58.00;;;;;;4973100;28;20746;-75
2022/07/07 08:17:33;;;;;;;1.52;1.00;;;25.90;59.10;;;;;;4985487;28;20864;-74
2022/07/07 08:20:01;;;;;;;1.60;0.68;;;26.00;59.30;;;;;;4979856;28;20057;-75
2022/07/07 08:22:28;;;;;;;1.33;1.00;;;25.80;57.50;;;;;;4984319;28;20045;-75
2022/07/07 08:24:55;;;;;;;1.20;0.80;;;25.80;58.50;;;;;;4979303;28;20045;-75
2022/07/07 08:27:22;;;;;;;1.90;0.80;;;25.70;57.60;;;;;;4964407;28;20166;-75
2022/07/07 08:29:50;;;;;;;2.28;0.80;;;25.80;59.60;;;;;;4977946;28;20049;-74
2022/07/07 08:32:17;;;;;;;1.13;0.80;;;25.90;57.70;;;;;;4977891;28;20190;-74
2022/07/07 08:34:44;;;;;;;2.25;0.98;;;25.90;57.50;;;;;;4981898;28;20061;-74
2022/07/07 08:37:12;;;;;;;1.33;0.75;;;25.90;57.50;;;;;;4968932;28;20559;-75
2022/07/07 08:39:39;;;;;;;1.00;0.80;;;25.80;57.40;;;;;;4978540;28;20092;-75
2022/07/07 08:42:07;;;;;;;1.15;1.05;;;25.80;56.20;;;;;;4977100;28;20036;-75
2022/07/07 08:44:34;;;;;;;1.30;1.00;;;25.80;56.60;;;;;;4978564;28;20270;-75
2022/07/07 08:47:01;;;;;;;2.80;0.90;;;25.90;57.80;;;;;;4968392;28;20183;-75
2022/07/07 08:49:29;;;;;;;1.45;1.08;;;26.10;57.90;;;;;;4992064;28;22175;-74
2022/07/07 08:51:57;;;;;;;4.25;1.10;;;26.30;56.70;;;;;;4960762;28;20045;-75
2022/07/07 08:54:26;;;;;;;1.33;0.80;;;26.50;56.20;;;;;;4975907;28;20393;-75
2022/07/07 08:56:54;;;;;;;1.40;0.82;;;26.70;56.60;;;;;;4978836;28;20762;-75
2022/07/07 08:59:22;;;;;;;2.28;0.68;;;26.60;55.80;;;;;;4979347;28;20049;-75
2022/07/07 09:01:54;;;;;;;2.88;0.73;;;26.40;54.40;;;;;;4992454;28;20133;-75
2022/07/07 09:04:22;;;;;;;2.17;1.00;;;26.30;55.50;;;;;;4950965;28;20389;-75
2022/07/07 09:06:56;;;;;;;1.00;0.88;;;26.30;55.70;;;;;;4977785;28;22239;-75
2022/07/07 09:09:35;;;;;;;1.55;0.63;;;26.20;53.70;;;;;;4981469;28;20820;-75
2022/07/07 09:12:04;;;;;;;3.35;0.82;;;26.20;54.80;;;;;;4957929;28;20060;-75
2022/07/07 09:14:43;;;;;;;5.07;0.60;;;26.00;54.60;;;;;;4979613;28;22232;-75
2022/07/07 09:17:27;;;;;;;3.83;0.90;;;26.00;55.40;;;;;;4976713;28;20406;-75
2022/07/07 09:20:06;;;;;;;1.95;0.75;;;25.90;54.70;;;;;;4975844;28;20037;-75
2022/07/07 09:22:42;;;;;;;1.45;0.90;;;26.10;54.00;;;;;;4961790;28;20144;-75
2022/07/07 09:25:09;;;;;;;2.38;0.80;;;25.80;52.10;;;;;;4979733;28;22152;-75
2022/07/07 09:27:59;;;;;;;1.20;0.70;;;25.80;54.30;;;;;;4974698;28;21444;-75
2022/07/07 09:30:28;;;;;;;0.50;0.50;;;25.90;53.80;;;;;;4969009;28;20059;-74
2022/07/07 09:32:56;;;;;;;1.45;0.90;;;25.80;52.20;;;;;;4978772;28;20041;-75
2022/07/07 09:38:16;;;;;;;1.27;0.88;;;25.90;53.30;;;;;;4976105;28;20497;-75
2022/07/07 09:40:51;;;;;;;2.15;0.90;;;26.10;53.20;;;;;;4973825;28;20238;-75
2022/07/07 09:43:19;;;;;;;1.20;0.80;;;26.00;54.30;;;;;;4978130;28;20183;-75
2022/07/07 09:46:06;;;;;;;2.78;0.98;;;26.10;54.60;;;;;;4982259;28;20064;-74
2022/07/07 09:48:34;;;;;;;2.40;0.70;;;26.10;54.20;;;;;;4965839;28;20576;-75
2022/07/07 09:51:21;;;;;;;1.20;0.80;;;26.00;55.00;;;;;;4995591;28;20045;-76
2022/07/07 09:54:15;;;;;;;2.60;0.80;;;26.00;54.00;;;;;;4977255;28;20050;-75
2022/07/07 09:56:47;;;;;;;0.90;0.80;;;25.90;54.20;;;;;;4967984;28;20053;-75
2022/07/07 09:59:15;;;;;;;;;;;25.80;54.00;;;;;;4965618;28;20130;-75
2022/07/07 10:01:44;;;;;;;3.42;1.00;;;25.90;54.60;;;;;;4979522;28;19966;-75
2022/07/07 10:04:19;;;;;;;2.33;0.93;;;25.90;54.90;;;;;;4993293;28;20056;-75
2022/07/07 10:06:47;;;;;;;3.90;1.20;;;25.90;54.60;;;;;;4976754;28;20045;-75
2022/07/07 10:09:19;;;;;;;1.60;1.08;;;25.70;53.00;;;;;;4985034;28;20067;-75
2022/07/07 10:11:51;;;;;;;3.22;0.95;;;25.80;54.90;;;;;;4973785;28;20050;-75
2022/07/07 10:14:20;;;;;;;;;;;26.00;55.30;;;;;;4977421;28;20501;-75
2022/07/07 10:16:49;;;;;;;2.25;0.80;;;26.10;54.50;;;;;;4985170;28;21444;-75
2022/07/07 10:19:19;;;;;;;1.77;0.70;;;26.30;53.30;;;;;;4997583;28;20045;-75
2022/07/07 10:21:48;;;;;;;3.35;1.00;;;26.10;54.00;;;;;;4987065;28;20063;-75
2022/07/07 10:24:18;;;;;;;2.47;0.70;;;26.00;53.60;;;;;;4994642;28;20259;-75
2022/07/07 10:26:48;;;;;;;2.15;0.75;;;26.10;53.50;;;;;;4993139;28;20674;-74
2022/07/07 10:29:15;;;;;;;3.17;1.25;;;26.10;52.40;;;;;;4985588;28;20045;-75
2022/07/07 10:31:50;;;;;;;2.33;1.00;;;26.00;53.30;;;;;;4962693;28;20056;-76
2022/07/07 10:34:18;;;;;;;1.33;0.73;;;26.10;55.30;;;;;;5002225;28;20132;-76
2022/07/07 10:36:51;;;;;;;2.38;0.73;;;26.10;52.40;;;;;;4973839;28;21776;-76
2022/07/07 10:39:21;;;;;;;3.38;0.85;;;26.00;52.80;;;;;;4999693;28;20049;-75
2022/07/07 10:41:59;;;;;;;2.58;0.60;;;25.80;52.80;;;;;;4976781;28;20175;-75
2022/07/07 10:44:27;;;;;;;3.40;0.95;;;25.70;53.60;;;;;;4999060;28;20061;-76
2022/07/07 10:47:12;;;;;;;1.77;0.98;;;25.50;54.30;;;;;;4999535;28;20092;-75
2022/07/07 10:49:44;;;;;;;2.15;0.70;;;25.40;52.80;;;;;;5002395;28;21116;-76
2022/07/07 10:52:25;;;;;;;1.27;0.57;;;25.30;53.90;;;;;;5014145;28;20053;-76
2022/07/07 10:55:02;;;;;;;2.25;0.73;;;25.20;52.80;;;;;;4994246;28;20045;-76
2022/07/07 10:57:42;;;;;;;2.63;0.95;;;25.10;53.30;;;;;;5001504;28;20093;-75
2022/07/07 11:00:19;;;;;;;1.00;0.68;;;25.10;53.70;;;;;;5003870;28;22510;-76
2022/07/07 11:02:51;;;;;;;1.20;0.47;;;25.10;53.50;;;;;;4997153;28;20101;-76
2022/07/07 11:05:18;;;;;;;1.92;0.65;;;25.10;54.10;;;;;;4998398;28;20065;-75
2022/07/07 11:07:58;;;;;;;1.70;0.80;;;25.10;53.00;;;;;;4993377;28;20053;-75
2022/07/07 11:10:40;;;;;;;0.98;0.60;;;25.20;54.40;;;;;;4992740;28;20046;-76
2022/07/07 11:13:16;;;;;;;2.30;1.10;;;25.60;55.20;;;;;;5005713;28;20160;-76
2022/07/07 11:15:45;;;;;;;3.22;1.00;;;26.00;53.80;;;;;;5010943;28;20061;-75
2022/07/07 11:18:14;;;;;;;2.67;0.73;;;26.40;53.40;;;;;;5006758;28;20056;-75
2022/07/07 11:21:03;;;;;;;2.35;0.90;;;26.70;53.70;;;;;;5024378;28;20045;-75
2022/07/07 11:23:59;;;;;;;2.38;1.02;;;26.90;52.30;;;;;;5000272;28;20056;-75
2022/07/07 11:26:26;;;;;;;1.33;0.80;;;27.00;52.70;;;;;;4999827;28;22398;-77
2022/07/07 11:28:56;;;;;;;1.95;0.80;;;27.10;51.30;;;;;;5006003;28;22548;-75
2022/07/07 11:31:25;;;;;;;1.20;0.90;;;27.00;51.40;;;;;;5022590;28;20049;-75
2022/07/07 11:33:55;;;;;;;1.35;0.60;;;26.90;51.30;;;;;;4993406;28;20483;-75
2022/07/07 11:36:24;;;;;;;2.47;1.00;;;27.20;51.10;;;;;;4996706;28;20050;-75
2022/07/07 11:38:56;;;;;;;1.52;0.90;;;27.30;52.50;;;;;;4987004;28;20157;-75
2022/07/07 11:41:44;;;;;;;1.88;0.55;;;27.00;51.50;;;;;;4999373;28;20057;-75
2022/07/07 11:44:21;;;;;;;3.63;1.48;;;26.70;51.90;;;;;;5003945;28;20060;-75
2022/07/07 11:46:53;;;;;;;2.15;0.70;;;26.50;53.00;;;;;;5005914;28;20076;-76
2022/07/07 11:49:20;;;;;;;2.88;0.90;;;26.40;53.50;;;;;;5023516;28;20061;-76
2022/07/07 11:51:48;;;;;;;1.60;0.90;;;26.50;55.20;;;;;;5009236;28;20132;-77
2022/07/07 11:54:16;;;;;;;2.78;0.98;;;26.50;54.50;;;;;;5009270;28;20065;-77
2022/07/07 11:56:43;;;;;;;1.17;0.77;;;26.80;55.80;;;;;;5006644;28;20048;-77
2022/07/07 11:59:11;;;;;;;2.95;0.88;;;27.10;53.80;;;;;;5004598;28;20057;-77
2022/07/07 12:01:40;;;;;;;1.45;0.95;;;27.10;52.80;;;;;;5005892;28;20524;-76
2022/07/07 12:04:18;;;;;;;2.15;1.00;;;27.30;52.90;;;;;;4967766;28;20049;-77
2022/07/07 12:06:45;;;;;;;1.25;0.90;;;27.30;52.70;;;;;;4983751;28;22101;-77
2022/07/07 12:09:12;;;;;;;1.38;0.80;;;27.10;53.20;;;;;;4968336;28;20114;-78
2022/07/07 12:11:40;;;;;;;1.80;0.95;;;26.80;52.90;;;;;;4985897;28;20059;-78
2022/07/07 12:14:10;;;;;;;2.00;0.90;;;26.90;53.70;;;;;;4965217;28;20049;-77
2022/07/07 12:16:43;;;;;;;3.70;1.00;;;26.80;52.80;;;;;;4972208;28;20148;-77
2022/07/07 12:19:10;;;;;;;1.60;0.90;;;26.80;53.20;;;;;;4974706;28;22282;-77
2022/07/07 12:21:51;;;;;;;1.55;0.90;;;26.70;51.70;;;;;;4979794;28;20846;-76
2022/07/07 12:24:21;;;;;;;1.13;0.82;;;26.80;52.80;;;;;;4995033;28;20555;-76
2022/07/07 12:27:18;;;;;;;4.55;0.88;;;27.00;52.30;;;;;;4994056;28;20073;-77
2022/07/07 12:30:03;;;;;;;1.95;0.70;;;26.90;52.60;;;;;;4981341;28;20045;-76
2022/07/07 12:32:31;;;;;;;2.80;0.88;;;27.10;52.80;;;;;;4978026;28;20182;-77
2022/07/07 12:34:58;;;;;;;1.63;0.70;;;27.10;52.30;;;;;;4961699;28;20147;-77
2022/07/07 12:37:42;;;;;;;1.33;0.73;;;27.10;53.20;;;;;;4984847;28;20643;-75
2022/07/07 12:40:12;;;;;;;1.50;0.90;;;27.20;52.90;;;;;;4980221;28;20539;-75
2022/07/07 12:42:44;;;;;;;1.65;1.00;;;27.20;51.20;;;;;;4968599;28;20183;-76
2022/07/07 12:45:13;;;;;;;1.48;0.77;;;27.10;51.50;;;;;;4972361;28;20476;-76
2022/07/07 12:47:52;;;;;;;1.63;0.82;;;27.20;50.60;;;;;;4953831;28;20512;-75
2022/07/07 12:50:23;;;;;;;3.10;0.80;;;27.40;52.30;;;;;;4983167;28;20048;-75
2022/07/07 12:53:00;;;;;;;1.85;0.80;;;27.50;52.00;;;;;;4978271;28;20699;-75
2022/07/07 12:55:41;;;;;;;1.20;0.82;;;27.40;51.70;;;;;;4980000;28;20060;-75
2022/07/07 12:58:17;;;;;;;2.07;0.70;;;26.90;50.90;;;;;;4981579;28;20132;-76
2022/07/07 13:00:59;;;;;;;2.97;0.75;;;26.60;51.60;;;;;;4968857;28;20048;-75
2022/07/07 13:03:28;;;;;;;1.10;0.73;;;26.60;53.30;;;;;;4979392;28;20946;-75